sensor_id;sensor_type;location;lat;lon;timestamp;P1;durP1;ratioP1;P2;durP2;ratioP2
64615;SDS011;51027;42.162;24.754;2023-07-29T03:30:45;13.55;;;5.20;;
64615;SDS011;51027;42.162;24.754;2023-07-29T03:33:11;14.00;;;4.95;;
64615;SDS011;51027;42.162;24.754;2023-07-29T03:35:40;12.88;;;5.18;;
64615;SDS011;51027;42.162;24.754;2023-07-29T03:38:09;14.23;;;5.45;;
64615;SDS011;51027;42.162;24.754;2023-07-29T03:40:37;15.13;;;5.30;;
64615;SDS011;51027;42.162;24.754;2023-07-29T03:43:06;14.90;;;5.43;;
64615;SDS011;51027;42.162;24.754;2023-07-29T03:45:32;15.55;;;5.38;;
64615;SDS011;51027;42.162;24.754;2023-07-29T03:47:58;14.07;;;5.40;;
64615;SDS011;51027;42.162;24.754;2023-07-29T03:50:24;17.13;;;6.05;;
64615;SDS011;51027;42.162;24.754;2023-07-29T03:52:50;15.07;;;5.63;;
64615;SDS011;51027;42.162;24.754;2023-07-29T03:55:16;14.10;;;4.90;;
64615;SDS011;51027;42.162;24.754;2023-07-29T03:57:41;14.63;;;5.70;;
64615;SDS011;51027;42.162;24.754;2023-07-29T04:00:07;16.85;;;5.75;;
64615;SDS011;51027;42.162;24.754;2023-07-29T04:02:34;13.32;;;5.28;;
64615;SDS011;51027;42.162;24.754;2023-07-29T04:05:02;13.40;;;5.28;;
64615;SDS011;51027;42.162;24.754;2023-07-29T04:07:29;15.90;;;5.82;;
64615;SDS011;51027;42.162;24.754;2023-07-29T04:09:55;15.52;;;5.63;;
64615;SDS011;51027;42.162;24.754;2023-07-29T04:12:20;16.05;;;5.30;;
64615;SDS011;51027;42.162;24.754;2023-07-29T04:14:46;15.23;;;5.38;;
64615;SDS011;51027;42.162;24.754;2023-07-29T04:17:12;14.75;;;5.05;;
64615;SDS011;51027;42.162;24.754;2023-07-29T04:19:37;12.73;;;4.85;;
64615;SDS011;51027;42.162;24.754;2023-07-29T04:22:03;15.90;;;5.47;;
64615;SDS011;51027;42.162;24.754;2023-07-29T04:24:28;15.85;;;5.72;;
64615;SDS011;51027;42.162;24.754;2023-07-29T04:26:54;12.40;;;5.20;;
64615;SDS011;51027;42.162;24.754;2023-07-29T04:29:19;14.98;;;5.07;;
64615;SDS011;51027;42.162;24.754;2023-07-29T04:31:45;15.15;;;5.60;;
64615;SDS011;51027;42.162;24.754;2023-07-29T04:34:11;14.32;;;5.78;;
64615;SDS011;51027;42.162;24.754;2023-07-29T04:36:36;17.27;;;6.18;;
64615;SDS011;51027;42.162;24.754;2023-07-29T04:39:01;16.85;;;5.60;;
64615;SDS011;51027;42.162;24.754;2023-07-29T04:41:27;15.18;;;5.53;;
64615;SDS011;51027;42.162;24.754;2023-07-29T04:43:52;16.63;;;6.50;;
64615;SDS011;51027;42.162;24.754;2023-07-29T04:46:18;15.35;;;5.68;;
64615;SDS011;51027;42.162;24.754;2023-07-29T04:48:43;16.27;;;5.28;;
64615;SDS011;51027;42.162;24.754;2023-07-29T04:51:09;17.13;;;5.90;;
64615;SDS011;51027;42.162;24.754;2023-07-29T04:53:34;16.77;;;5.60;;
64615;SDS011;51027;42.162;24.754;2023-07-29T04:56:02;14.60;;;5.30;;
64615;SDS011;51027;42.162;24.754;2023-07-29T04:58:29;13.57;;;4.70;;
64615;SDS011;51027;42.162;24.754;2023-07-29T05:00:55;17.17;;;5.50;;
64615;SDS011;51027;42.162;24.754;2023-07-29T05:03:21;16.58;;;6.63;;
64615;SDS011;51027;42.162;24.754;2023-07-29T05:05:46;14.45;;;5.25;;
64615;SDS011;51027;42.162;24.754;2023-07-29T05:08:12;15.57;;;5.43;;
64615;SDS011;51027;42.162;24.754;2023-07-29T05:10:37;17.10;;;6.10;;
64615;SDS011;51027;42.162;24.754;2023-07-29T05:13:03;17.27;;;5.47;;
64615;SDS011;51027;42.162;24.754;2023-07-29T05:15:28;17.45;;;6.00;;
64615;SDS011;51027;42.162;24.754;2023-07-29T05:17:53;14.85;;;5.85;;
64615;SDS011;51027;42.162;24.754;2023-07-29T05:20:19;19.40;;;5.93;;
64615;SDS011;51027;42.162;24.754;2023-07-29T05:22:44;21.45;;;8.43;;
64615;SDS011;51027;42.162;24.754;2023-07-29T05:25:10;18.88;;;6.55;;
64615;SDS011;51027;42.162;24.754;2023-07-29T05:27:35;17.10;;;6.15;;
64615;SDS011;51027;42.162;24.754;2023-07-29T05:30:00;20.55;;;7.60;;
64615;SDS011;51027;42.162;24.754;2023-07-29T05:32:26;22.20;;;7.45;;
64615;SDS011;51027;42.162;24.754;2023-07-29T05:34:51;20.25;;;7.10;;
64615;SDS011;51027;42.162;24.754;2023-07-29T05:37:16;16.48;;;6.40;;
64615;SDS011;51027;42.162;24.754;2023-07-29T05:39:42;15.23;;;6.80;;
64615;SDS011;51027;42.162;24.754;2023-07-29T05:42:07;18.77;;;7.43;;
64615;SDS011;51027;42.162;24.754;2023-07-29T05:44:33;19.05;;;6.30;;
64615;SDS011;51027;42.162;24.754;2023-07-29T05:46:58;19.75;;;7.40;;
64615;SDS011;51027;42.162;24.754;2023-07-29T05:49:24;17.15;;;6.25;;
64615;SDS011;51027;42.162;24.754;2023-07-29T05:51:49;17.65;;;5.82;;
64615;SDS011;51027;42.162;24.754;2023-07-29T05:54:17;16.13;;;6.32;;
64615;SDS011;51027;42.162;24.754;2023-07-29T05:56:43;17.58;;;6.70;;
64615;SDS011;51027;42.162;24.754;2023-07-29T05:59:08;22.17;;;6.60;;
64615;SDS011;51027;42.162;24.754;2023-07-29T06:01:34;15.25;;;5.45;;
64615;SDS011;51027;42.162;24.754;2023-07-29T06:04:00;15.73;;;6.18;;
64615;SDS011;51027;42.162;24.754;2023-07-29T06:06:25;17.60;;;7.75;;
64615;SDS011;51027;42.162;24.754;2023-07-29T06:08:51;18.08;;;6.72;;
64615;SDS011;51027;42.162;24.754;2023-07-29T06:11:16;17.23;;;6.20;;
64615;SDS011;51027;42.162;24.754;2023-07-29T06:13:42;19.80;;;5.53;;
64615;SDS011;51027;42.162;24.754;2023-07-29T06:16:07;14.98;;;5.03;;
64615;SDS011;51027;42.162;24.754;2023-07-29T06:18:33;14.15;;;5.93;;
64615;SDS011;51027;42.162;24.754;2023-07-29T06:20:58;18.63;;;6.75;;
64615;SDS011;51027;42.162;24.754;2023-07-29T06:23:23;14.52;;;5.18;;
64615;SDS011;51027;42.162;24.754;2023-07-29T06:25:49;14.88;;;4.85;;
64615;SDS011;51027;42.162;24.754;2023-07-29T06:28:14;12.45;;;5.00;;
64615;SDS011;51027;42.162;24.754;2023-07-29T06:30:40;15.32;;;5.78;;
64615;SDS011;51027;42.162;24.754;2023-07-29T06:33:05;12.25;;;4.28;;
64615;SDS011;51027;42.162;24.754;2023-07-29T06:35:31;12.93;;;4.78;;
64615;SDS011;51027;42.162;24.754;2023-07-29T06:37:56;12.40;;;4.50;;
64615;SDS011;51027;42.162;24.754;2023-07-29T06:40:22;12.88;;;4.82;;
64615;SDS011;51027;42.162;24.754;2023-07-29T06:42:47;13.50;;;4.72;;
64615;SDS011;51027;42.162;24.754;2023-07-29T06:45:13;14.48;;;5.07;;
64615;SDS011;51027;42.162;24.754;2023-07-29T06:47:38;14.10;;;4.90;;
64615;SDS011;51027;42.162;24.754;2023-07-29T06:50:04;13.15;;;4.93;;
64615;SDS011;51027;42.162;24.754;2023-07-29T06:52:29;14.63;;;5.13;;
64615;SDS011;51027;42.162;24.754;2023-07-29T06:54:55;13.10;;;5.03;;
64615;SDS011;51027;42.162;24.754;2023-07-29T06:57:20;14.32;;;4.40;;
64615;SDS011;51027;42.162;24.754;2023-07-29T06:59:46;13.98;;;4.80;;
64615;SDS011;51027;42.162;24.754;2023-07-29T07:02:11;14.48;;;4.80;;
64615;SDS011;51027;42.162;24.754;2023-07-29T07:04:36;14.70;;;5.03;;
64615;SDS011;51027;42.162;24.754;2023-07-29T07:07:02;13.90;;;5.18;;
64615;SDS011;51027;42.162;24.754;2023-07-29T07:09:27;12.57;;;4.57;;
64615;SDS011;51027;42.162;24.754;2023-07-29T07:11:53;14.05;;;4.82;;
64615;SDS011;51027;42.162;24.754;2023-07-29T07:14:18;15.38;;;4.93;;
64615;SDS011;51027;42.162;24.754;2023-07-29T07:16:44;15.30;;;5.60;;
64615;SDS011;51027;42.162;24.754;2023-07-29T07:19:09;17.02;;;5.50;;
64615;SDS011;51027;42.162;24.754;2023-07-29T07:21:35;12.85;;;4.50;;
64615;SDS011;51027;42.162;24.754;2023-07-29T07:24:01;13.52;;;5.20;;
64615;SDS011;51027;42.162;24.754;2023-07-29T07:26:26;14.05;;;4.93;;
64615;SDS011;51027;42.162;24.754;2023-07-29T07:28:52;13.88;;;4.80;;
64615;SDS011;51027;42.162;24.754;2023-07-29T07:31:17;13.35;;;4.85;;
64615;SDS011;51027;42.162;24.754;2023-07-29T07:33:42;15.57;;;4.80;;
64615;SDS011;51027;42.162;24.754;2023-07-29T07:36:08;12.68;;;4.82;;
64615;SDS011;51027;42.162;24.754;2023-07-29T07:38:33;11.02;;;4.45;;
64615;SDS011;51027;42.162;24.754;2023-07-29T07:40:59;13.32;;;4.57;;
64615;SDS011;51027;42.162;24.754;2023-07-29T07:43:24;12.20;;;4.35;;
64615;SDS011;51027;42.162;24.754;2023-07-29T07:45:50;14.50;;;4.80;;
64615;SDS011;51027;42.162;24.754;2023-07-29T07:48:16;12.98;;;4.78;;
64615;SDS011;51027;42.162;24.754;2023-07-29T07:50:42;11.52;;;4.75;;
64615;SDS011;51027;42.162;24.754;2023-07-29T07:53:08;11.40;;;4.32;;
64615;SDS011;51027;42.162;24.754;2023-07-29T07:55:34;14.35;;;5.13;;
64615;SDS011;51027;42.162;24.754;2023-07-29T07:57:59;15.02;;;4.78;;
64615;SDS011;51027;42.162;24.754;2023-07-29T08:00:24;12.48;;;4.90;;
64615;SDS011;51027;42.162;24.754;2023-07-29T08:02:50;13.70;;;4.90;;
64615;SDS011;51027;42.162;24.754;2023-07-29T08:05:15;13.07;;;4.50;;
64615;SDS011;51027;42.162;24.754;2023-07-29T08:07:40;11.57;;;4.45;;
64615;SDS011;51027;42.162;24.754;2023-07-29T08:10:06;11.40;;;4.47;;
64615;SDS011;51027;42.162;24.754;2023-07-29T08:12:32;12.70;;;4.60;;
64615;SDS011;51027;42.162;24.754;2023-07-29T08:14:57;12.15;;;4.65;;
64615;SDS011;51027;42.162;24.754;2023-07-29T08:17:23;14.52;;;5.28;;
64615;SDS011;51027;42.162;24.754;2023-07-29T08:19:48;15.45;;;5.00;;
64615;SDS011;51027;42.162;24.754;2023-07-29T08:22:14;11.98;;;4.72;;
64615;SDS011;51027;42.162;24.754;2023-07-29T08:24:41;13.52;;;5.05;;
64615;SDS011;51027;42.162;24.754;2023-07-29T08:27:08;12.02;;;4.53;;
64615;SDS011;51027;42.162;24.754;2023-07-29T08:29:34;12.13;;;4.50;;
64615;SDS011;51027;42.162;24.754;2023-07-29T08:31:59;15.15;;;4.95;;
64615;SDS011;51027;42.162;24.754;2023-07-29T08:34:25;15.40;;;4.82;;
64615;SDS011;51027;42.162;24.754;2023-07-29T08:36:50;12.65;;;4.40;;
64615;SDS011;51027;42.162;24.754;2023-07-29T08:39:16;11.65;;;4.15;;
64615;SDS011;51027;42.162;24.754;2023-07-29T08:44:18;12.50;;;4.60;;
64615;SDS011;51027;42.162;24.754;2023-07-29T08:46:50;13.93;;;4.47;;
64615;SDS011;51027;42.162;24.754;2023-07-29T08:49:18;12.85;;;4.63;;
64615;SDS011;51027;42.162;24.754;2023-07-29T08:51:47;12.95;;;4.45;;
64615;SDS011;51027;42.162;24.754;2023-07-29T08:54:13;13.45;;;4.65;;
64615;SDS011;51027;42.162;24.754;2023-07-29T08:56:42;12.63;;;4.47;;
64615;SDS011;51027;42.162;24.754;2023-07-29T08:59:08;11.68;;;4.32;;
64615;SDS011;51027;42.162;24.754;2023-07-29T09:01:36;11.18;;;4.45;;
64615;SDS011;51027;42.162;24.754;2023-07-29T09:04:03;11.15;;;4.30;;
64615;SDS011;51027;42.162;24.754;2023-07-29T09:06:29;12.77;;;5.38;;
64615;SDS011;51027;42.162;24.754;2023-07-29T09:08:56;12.60;;;4.70;;
64615;SDS011;51027;42.162;24.754;2023-07-29T09:11:23;19.08;;;5.65;;
64615;SDS011;51027;42.162;24.754;2023-07-29T09:13:49;21.83;;;10.20;;
64615;SDS011;51027;42.162;24.754;2023-07-29T09:16:14;14.40;;;5.20;;
64615;SDS011;51027;42.162;24.754;2023-07-29T09:18:40;13.02;;;4.68;;
64615;SDS011;51027;42.162;24.754;2023-07-29T09:21:05;13.18;;;4.80;;
64615;SDS011;51027;42.162;24.754;2023-07-29T09:23:38;14.88;;;5.78;;
64615;SDS011;51027;42.162;24.754;2023-07-29T09:26:07;20.35;;;7.70;;
64615;SDS011;51027;42.162;24.754;2023-07-29T09:28:42;28.25;;;12.90;;
64615;SDS011;51027;42.162;24.754;2023-07-29T09:31:10;22.80;;;9.55;;
64615;SDS011;51027;42.162;24.754;2023-07-29T09:33:44;22.85;;;10.52;;
64615;SDS011;51027;42.162;24.754;2023-07-29T09:36:10;15.13;;;6.05;;
64615;SDS011;51027;42.162;24.754;2023-07-29T09:38:36;12.85;;;4.72;;
64615;SDS011;51027;42.162;24.754;2023-07-29T09:41:03;13.15;;;4.75;;
64615;SDS011;51027;42.162;24.754;2023-07-29T09:43:31;9.90;;;3.90;;
64615;SDS011;51027;42.162;24.754;2023-07-29T09:46:04;12.10;;;4.75;;
64615;SDS011;51027;42.162;24.754;2023-07-29T09:48:37;11.98;;;4.22;;
64615;SDS011;51027;42.162;24.754;2023-07-29T09:51:13;12.48;;;4.10;;
64615;SDS011;51027;42.162;24.754;2023-07-29T09:53:43;11.98;;;4.95;;
64615;SDS011;51027;42.162;24.754;2023-07-29T09:56:13;9.25;;;3.92;;
64615;SDS011;51027;42.162;24.754;2023-07-29T09:58:42;12.25;;;4.43;;
64615;SDS011;51027;42.162;24.754;2023-07-29T10:01:12;13.15;;;4.45;;
64615;SDS011;51027;42.162;24.754;2023-07-29T10:03:39;8.13;;;4.05;;
64615;SDS011;51027;42.162;24.754;2023-07-29T10:06:05;9.95;;;3.90;;
64615;SDS011;51027;42.162;24.754;2023-07-29T10:08:31;12.93;;;4.50;;
64615;SDS011;51027;42.162;24.754;2023-07-29T10:11:01;10.73;;;4.00;;
64615;SDS011;51027;42.162;24.754;2023-07-29T10:13:27;11.63;;;4.43;;
64615;SDS011;51027;42.162;24.754;2023-07-29T10:16:02;12.38;;;4.50;;
64615;SDS011;51027;42.162;24.754;2023-07-29T10:20:57;11.35;;;4.53;;
64615;SDS011;51027;42.162;24.754;2023-07-29T10:23:31;14.57;;;5.10;;
64615;SDS011;51027;42.162;24.754;2023-07-29T10:26:05;12.07;;;5.40;;
64615;SDS011;51027;42.162;24.754;2023-07-29T10:28:41;10.93;;;4.25;;
64615;SDS011;51027;42.162;24.754;2023-07-29T10:31:12;10.00;;;4.10;;
64615;SDS011;51027;42.162;24.754;2023-07-29T10:33:46;11.73;;;4.00;;
64615;SDS011;51027;42.162;24.754;2023-07-29T10:36:15;11.07;;;4.13;;
64615;SDS011;51027;42.162;24.754;2023-07-29T10:38:42;10.48;;;4.40;;
64615;SDS011;51027;42.162;24.754;2023-07-29T10:41:07;11.90;;;4.03;;
64615;SDS011;51027;42.162;24.754;2023-07-29T10:43:36;9.50;;;3.55;;
64615;SDS011;51027;42.162;24.754;2023-07-29T10:46:18;11.43;;;3.72;;
64615;SDS011;51027;42.162;24.754;2023-07-29T10:51:30;8.95;;;3.72;;
64615;SDS011;51027;42.162;24.754;2023-07-29T10:54:03;12.13;;;4.00;;
64615;SDS011;51027;42.162;24.754;2023-07-29T10:56:42;11.23;;;3.90;;
64615;SDS011;51027;42.162;24.754;2023-07-29T11:01:38;12.40;;;3.90;;
64615;SDS011;51027;42.162;24.754;2023-07-29T11:10:02;8.80;;;3.60;;
64615;SDS011;51027;42.162;24.754;2023-07-29T11:12:50;8.82;;;3.47;;
64615;SDS011;51027;42.162;24.754;2023-07-29T11:15:28;9.25;;;3.72;;
64615;SDS011;51027;42.162;24.754;2023-07-29T11:17:57;9.80;;;3.60;;
64615;SDS011;51027;42.162;24.754;2023-07-29T11:20:28;10.52;;;3.58;;
64615;SDS011;51027;42.162;24.754;2023-07-29T11:22:55;11.82;;;3.90;;
64615;SDS011;51027;42.162;24.754;2023-07-29T11:25:26;9.88;;;3.83;;
64615;SDS011;51027;42.162;24.754;2023-07-29T11:27:56;9.68;;;3.40;;
64615;SDS011;51027;42.162;24.754;2023-07-29T11:30:23;8.43;;;3.33;;
64615;SDS011;51027;42.162;24.754;2023-07-29T11:35:18;7.05;;;2.92;;
64615;SDS011;51027;42.162;24.754;2023-07-29T11:37:45;7.97;;;3.15;;
64615;SDS011;51027;42.162;24.754;2023-07-29T11:40:13;8.27;;;3.25;;
64615;SDS011;51027;42.162;24.754;2023-07-29T11:42:44;9.55;;;3.30;;
64615;SDS011;51027;42.162;24.754;2023-07-29T11:45:11;10.07;;;3.72;;
64615;SDS011;51027;42.162;24.754;2023-07-29T11:47:37;8.00;;;3.25;;
64615;SDS011;51027;42.162;24.754;2023-07-29T11:50:04;7.75;;;3.28;;
64615;SDS011;51027;42.162;24.754;2023-07-29T11:52:34;8.03;;;3.60;;
64615;SDS011;51027;42.162;24.754;2023-07-29T11:55:05;9.18;;;3.50;;
64615;SDS011;51027;42.162;24.754;2023-07-29T11:57:35;11.50;;;4.47;;
64615;SDS011;51027;42.162;24.754;2023-07-29T12:00:05;9.50;;;3.40;;
64615;SDS011;51027;42.162;24.754;2023-07-29T12:02:38;6.47;;;3.20;;
64615;SDS011;51027;42.162;24.754;2023-07-29T12:05:05;9.90;;;3.35;;
64615;SDS011;51027;42.162;24.754;2023-07-29T12:07:33;10.10;;;3.22;;
64615;SDS011;51027;42.162;24.754;2023-07-29T12:10:03;7.78;;;3.20;;
64615;SDS011;51027;42.162;24.754;2023-07-29T12:12:31;8.43;;;3.22;;
64615;SDS011;51027;42.162;24.754;2023-07-29T12:14:57;9.80;;;3.25;;
64615;SDS011;51027;42.162;24.754;2023-07-29T12:17:26;6.55;;;2.95;;
64615;SDS011;51027;42.162;24.754;2023-07-29T12:22:24;9.27;;;3.15;;
64615;SDS011;51027;42.162;24.754;2023-07-29T12:24:50;9.90;;;3.40;;
64615;SDS011;51027;42.162;24.754;2023-07-29T12:27:18;7.28;;;2.95;;
64615;SDS011;51027;42.162;24.754;2023-07-29T12:29:53;7.82;;;3.13;;
64615;SDS011;51027;42.162;24.754;2023-07-29T12:32:24;4.60;;;2.63;;
64615;SDS011;51027;42.162;24.754;2023-07-29T12:34:52;3.78;;;2.38;;
64615;SDS011;51027;42.162;24.754;2023-07-29T12:37:18;6.33;;;2.93;;
64615;SDS011;51027;42.162;24.754;2023-07-29T12:39:44;7.20;;;3.00;;
64615;SDS011;51027;42.162;24.754;2023-07-29T12:42:10;6.90;;;2.70;;
64615;SDS011;51027;42.162;24.754;2023-07-29T12:44:36;5.68;;;2.65;;
64615;SDS011;51027;42.162;24.754;2023-07-29T12:47:04;6.63;;;2.67;;
64615;SDS011;51027;42.162;24.754;2023-07-29T12:49:36;4.25;;;2.30;;
64615;SDS011;51027;42.162;24.754;2023-07-29T12:52:10;8.00;;;2.60;;
64615;SDS011;51027;42.162;24.754;2023-07-29T12:54:36;5.15;;;2.50;;
64615;SDS011;51027;42.162;24.754;2023-07-29T12:57:05;5.75;;;2.75;;
64615;SDS011;51027;42.162;24.754;2023-07-29T12:59:31;6.47;;;2.70;;
64615;SDS011;51027;42.162;24.754;2023-07-29T13:01:57;4.47;;;2.10;;
64615;SDS011;51027;42.162;24.754;2023-07-29T13:04:22;3.90;;;2.20;;
64615;SDS011;51027;42.162;24.754;2023-07-29T13:06:48;5.43;;;2.35;;
64615;SDS011;51027;42.162;24.754;2023-07-29T13:09:13;7.00;;;2.65;;
64615;SDS011;51027;42.162;24.754;2023-07-29T13:11:39;4.18;;;2.45;;
64615;SDS011;51027;42.162;24.754;2023-07-29T13:14:04;3.90;;;2.17;;
64615;SDS011;51027;42.162;24.754;2023-07-29T13:16:36;8.68;;;3.28;;
64615;SDS011;51027;42.162;24.754;2023-07-29T13:21:27;3.10;;;2.13;;
64615;SDS011;51027;42.162;24.754;2023-07-29T13:23:52;3.90;;;2.30;;
64615;SDS011;51027;42.162;24.754;2023-07-29T13:26:18;3.72;;;2.40;;
64615;SDS011;51027;42.162;24.754;2023-07-29T13:28:44;4.97;;;2.33;;
64615;SDS011;51027;42.162;24.754;2023-07-29T13:31:10;5.45;;;2.55;;
64615;SDS011;51027;42.162;24.754;2023-07-29T13:33:36;4.25;;;2.25;;
64615;SDS011;51027;42.162;24.754;2023-07-29T13:36:05;5.68;;;2.20;;
64615;SDS011;51027;42.162;24.754;2023-07-29T13:38:31;5.22;;;2.45;;
64615;SDS011;51027;42.162;24.754;2023-07-29T13:40:56;5.45;;;2.50;;
64615;SDS011;51027;42.162;24.754;2023-07-29T13:43:22;4.25;;;2.30;;
64615;SDS011;51027;42.162;24.754;2023-07-29T13:45:48;4.18;;;2.20;;
64615;SDS011;51027;42.162;24.754;2023-07-29T13:48:15;3.97;;;2.20;;
64615;SDS011;51027;42.162;24.754;2023-07-29T13:50:41;4.68;;;2.25;;
64615;SDS011;51027;42.162;24.754;2023-07-29T13:53:08;4.95;;;2.15;;
64615;SDS011;51027;42.162;24.754;2023-07-29T13:55:34;6.63;;;2.38;;
64615;SDS011;51027;42.162;24.754;2023-07-29T13:58:08;6.50;;;2.53;;
64615;SDS011;51027;42.162;24.754;2023-07-29T14:00:34;5.72;;;2.45;;
64615;SDS011;51027;42.162;24.754;2023-07-29T14:03:00;3.42;;;2.20;;
64615;SDS011;51027;42.162;24.754;2023-07-29T14:05:26;3.50;;;2.40;;
64615;SDS011;51027;42.162;24.754;2023-07-29T14:07:52;6.03;;;2.45;;
64615;SDS011;51027;42.162;24.754;2023-07-29T14:10:17;9.23;;;3.15;;
64615;SDS011;51027;42.162;24.754;2023-07-29T14:12:49;4.18;;;2.20;;
64615;SDS011;51027;42.162;24.754;2023-07-29T14:15:14;4.15;;;2.08;;
64615;SDS011;51027;42.162;24.754;2023-07-29T14:17:42;6.80;;;2.47;;
64615;SDS011;51027;42.162;24.754;2023-07-29T14:20:11;3.55;;;2.00;;
64615;SDS011;51027;42.162;24.754;2023-07-29T14:22:47;7.90;;;2.33;;
64615;SDS011;51027;42.162;24.754;2023-07-29T14:25:13;3.95;;;1.88;;
64615;SDS011;51027;42.162;24.754;2023-07-29T14:27:39;9.07;;;3.10;;
64615;SDS011;51027;42.162;24.754;2023-07-29T14:30:05;3.80;;;2.00;;
64615;SDS011;51027;42.162;24.754;2023-07-29T14:32:32;5.03;;;2.20;;
64615;SDS011;51027;42.162;24.754;2023-07-29T14:34:57;3.60;;;2.08;;
64615;SDS011;51027;42.162;24.754;2023-07-29T14:37:23;6.90;;;2.35;;
64615;SDS011;51027;42.162;24.754;2023-07-29T14:39:49;4.90;;;2.20;;
64615;SDS011;51027;42.162;24.754;2023-07-29T14:42:14;4.28;;;2.30;;
64615;SDS011;51027;42.162;24.754;2023-07-29T14:44:40;4.57;;;2.08;;
64615;SDS011;51027;42.162;24.754;2023-07-29T14:47:07;4.32;;;2.40;;
64615;SDS011;51027;42.162;24.754;2023-07-29T14:49:33;6.18;;;2.55;;
64615;SDS011;51027;42.162;24.754;2023-07-29T14:51:59;5.47;;;2.47;;
64615;SDS011;51027;42.162;24.754;2023-07-29T14:54:24;5.53;;;2.50;;
64615;SDS011;51027;42.162;24.754;2023-07-29T14:56:53;8.15;;;2.60;;
64615;SDS011;51027;42.162;24.754;2023-07-29T14:59:19;4.72;;;2.20;;
64615;SDS011;51027;42.162;24.754;2023-07-29T15:01:45;5.95;;;2.67;;
64615;SDS011;51027;42.162;24.754;2023-07-29T15:04:22;4.80;;;2.40;;
64615;SDS011;51027;42.162;24.754;2023-07-29T15:06:48;8.75;;;2.83;;
64615;SDS011;51027;42.162;24.754;2023-07-29T15:09:14;4.28;;;2.50;;
64615;SDS011;51027;42.162;24.754;2023-07-29T15:11:43;8.50;;;2.78;;
64615;SDS011;51027;42.162;24.754;2023-07-29T15:14:17;8.10;;;2.80;;
64615;SDS011;51027;42.162;24.754;2023-07-29T15:16:46;5.47;;;2.60;;
64615;SDS011;51027;42.162;24.754;2023-07-29T15:19:12;7.63;;;2.53;;
64615;SDS011;51027;42.162;24.754;2023-07-29T15:21:40;5.10;;;2.45;;
64615;SDS011;51027;42.162;24.754;2023-07-29T15:24:18;4.55;;;2.60;;
64615;SDS011;51027;42.162;24.754;2023-07-29T15:26:46;9.68;;;3.25;;
64615;SDS011;51027;42.162;24.754;2023-07-29T15:29:12;3.77;;;2.40;;
64615;SDS011;51027;42.162;24.754;2023-07-29T15:31:43;4.82;;;2.50;;
64615;SDS011;51027;42.162;24.754;2023-07-29T15:34:09;4.78;;;2.45;;
64615;SDS011;51027;42.162;24.754;2023-07-29T15:36:35;4.78;;;2.55;;
64615;SDS011;51027;42.162;24.754;2023-07-29T15:39:00;5.60;;;2.45;;
64615;SDS011;51027;42.162;24.754;2023-07-29T15:41:26;6.15;;;2.60;;
64615;SDS011;51027;42.162;24.754;2023-07-29T15:43:58;7.20;;;2.80;;
64615;SDS011;51027;42.162;24.754;2023-07-29T15:46:31;11.43;;;4.30;;
64615;SDS011;51027;42.162;24.754;2023-07-29T15:49:03;5.35;;;2.55;;
64615;SDS011;51027;42.162;24.754;2023-07-29T15:51:29;9.25;;;3.00;;
64615;SDS011;51027;42.162;24.754;2023-07-29T15:53:55;14.68;;;5.97;;
64615;SDS011;51027;42.162;24.754;2023-07-29T15:56:20;7.32;;;2.90;;
64615;SDS011;51027;42.162;24.754;2023-07-29T15:58:46;6.55;;;2.88;;
64615;SDS011;51027;42.162;24.754;2023-07-29T16:01:11;6.30;;;2.50;;
64615;SDS011;51027;42.162;24.754;2023-07-29T16:03:37;6.03;;;2.78;;
64615;SDS011;51027;42.162;24.754;2023-07-29T16:06:05;12.43;;;3.63;;
64615;SDS011;51027;42.162;24.754;2023-07-29T16:08:37;24.10;;;7.93;;
64615;SDS011;51027;42.162;24.754;2023-07-29T16:11:02;23.30;;;7.95;;
64615;SDS011;51027;42.162;24.754;2023-07-29T16:13:28;7.55;;;2.83;;
64615;SDS011;51027;42.162;24.754;2023-07-29T16:15:53;42.30;;;17.08;;
64615;SDS011;51027;42.162;24.754;2023-07-29T16:18:19;47.95;;;21.90;;
64615;SDS011;51027;42.162;24.754;2023-07-29T16:20:44;15.82;;;4.57;;
64615;SDS011;51027;42.162;24.754;2023-07-29T16:23:18;11.80;;;3.40;;
64615;SDS011;51027;42.162;24.754;2023-07-29T16:25:43;9.07;;;2.80;;
64615;SDS011;51027;42.162;24.754;2023-07-29T16:28:09;14.40;;;3.90;;
64615;SDS011;51027;42.162;24.754;2023-07-29T16:33:06;11.67;;;3.13;;
64615;SDS011;51027;42.162;24.754;2023-07-29T16:35:32;26.60;;;10.93;;
64615;SDS011;51027;42.162;24.754;2023-07-29T16:37:58;10.75;;;3.70;;
64615;SDS011;51027;42.162;24.754;2023-07-29T16:40:30;46.50;;;18.02;;
64615;SDS011;51027;42.162;24.754;2023-07-29T16:43:02;56.90;;;23.23;;
64615;SDS011;51027;42.162;24.754;2023-07-29T16:45:27;17.42;;;5.95;;
64615;SDS011;51027;42.162;24.754;2023-07-29T16:47:53;15.07;;;4.35;;
64615;SDS011;51027;42.162;24.754;2023-07-29T16:50:19;9.75;;;2.83;;
64615;SDS011;51027;42.162;24.754;2023-07-29T16:55:23;13.77;;;4.10;;
64615;SDS011;51027;42.162;24.754;2023-07-29T16:57:52;5.63;;;2.33;;
64615;SDS011;51027;42.162;24.754;2023-07-29T17:02:49;10.83;;;3.07;;
64615;SDS011;51027;42.162;24.754;2023-07-29T17:05:15;12.13;;;3.17;;
64615;SDS011;51027;42.162;24.754;2023-07-29T17:07:41;8.40;;;3.28;;
64615;SDS011;51027;42.162;24.754;2023-07-29T17:10:18;10.52;;;3.60;;
64615;SDS011;51027;42.162;24.754;2023-07-29T17:12:44;12.30;;;3.60;;
64615;SDS011;51027;42.162;24.754;2023-07-29T17:15:10;11.07;;;3.75;;
64615;SDS011;51027;42.162;24.754;2023-07-29T17:17:35;13.65;;;3.67;;
64615;SDS011;51027;42.162;24.754;2023-07-29T17:20:02;7.63;;;2.97;;
64615;SDS011;51027;42.162;24.754;2023-07-29T17:22:51;8.73;;;3.03;;
64615;SDS011;51027;42.162;24.754;2023-07-29T17:25:23;11.82;;;3.50;;
64615;SDS011;51027;42.162;24.754;2023-07-29T17:27:51;7.53;;;2.63;;
64615;SDS011;51027;42.162;24.754;2023-07-29T17:30:16;9.50;;;2.80;;
64615;SDS011;51027;42.162;24.754;2023-07-29T17:32:42;8.68;;;3.03;;
64615;SDS011;51027;42.162;24.754;2023-07-29T17:35:10;9.77;;;3.15;;
64615;SDS011;51027;42.162;24.754;2023-07-29T17:37:35;11.07;;;3.78;;
64615;SDS011;51027;42.162;24.754;2023-07-29T17:40:01;9.13;;;2.97;;
64615;SDS011;51027;42.162;24.754;2023-07-29T17:42:27;10.88;;;3.17;;
64615;SDS011;51027;42.162;24.754;2023-07-29T17:44:53;6.70;;;2.75;;
64615;SDS011;51027;42.162;24.754;2023-07-29T17:47:18;6.28;;;2.70;;
64615;SDS011;51027;42.162;24.754;2023-07-29T17:49:44;9.13;;;3.00;;
64615;SDS011;51027;42.162;24.754;2023-07-29T17:52:09;15.25;;;3.58;;
64615;SDS011;51027;42.162;24.754;2023-07-29T17:54:37;10.90;;;3.33;;
64615;SDS011;51027;42.162;24.754;2023-07-29T17:57:04;9.93;;;3.60;;
64615;SDS011;51027;42.162;24.754;2023-07-29T17:59:30;12.13;;;3.80;;
64615;SDS011;51027;42.162;24.754;2023-07-29T18:01:57;11.43;;;3.45;;
64615;SDS011;51027;42.162;24.754;2023-07-29T18:04:23;10.00;;;3.55;;
64615;SDS011;51027;42.162;24.754;2023-07-29T18:06:48;8.35;;;3.45;;
64615;SDS011;51027;42.162;24.754;2023-07-29T18:09:14;10.25;;;3.42;;
64615;SDS011;51027;42.162;24.754;2023-07-29T18:11:40;12.15;;;3.53;;
64615;SDS011;51027;42.162;24.754;2023-07-29T18:14:07;8.60;;;3.17;;
64615;SDS011;51027;42.162;24.754;2023-07-29T18:16:33;12.32;;;3.75;;
64615;SDS011;51027;42.162;24.754;2023-07-29T18:21:27;13.02;;;4.10;;
64615;SDS011;51027;42.162;24.754;2023-07-29T18:23:53;10.20;;;3.83;;
64615;SDS011;51027;42.162;24.754;2023-07-29T18:26:18;11.25;;;3.50;;
64615;SDS011;51027;42.162;24.754;2023-07-29T18:28:53;10.95;;;3.83;;